CheckWX is a tool to help pilots better visualize weather data.  It is not intended as a substitute for an official pre-flight weather briefing.

11:05:17 UTC

KCRX METAR
Roscoe Turner Airport
Corinth, Mississippi, USA
Current

30 mins ago

KCRX 241035Z AUTO 00000KT 4SM BR CLR 19/19 A3012 RMK AO2
Observed
May-24 @ 10:35 UTC
Visibility
4 SM
Flight Rules
MVFR
Conditions
Mist
Cloud Levels
  • Clear skies
Temperature
19°C / 66°F
Dewpoint
19°C / 66°F
Humidity
100%
Altimeter
30.12" Hg
Pressure
1020.02 hPa
Previous

50 mins ago

KCRX 241015Z AUTO 00000KT 9SM CLR 20/19 A3011 RMK AO2
Observed
May-24 @ 10:15 UTC
Visibility
9 SM
Flight Rules
VFR
Cloud Levels
  • Clear skies
Temperature
20°C / 68°F
Dewpoint
19°C / 66°F
Humidity
94%
Altimeter
30.11" Hg
Pressure
1019.62 hPa
Previous

1 hour ago

KCRX 240955Z AUTO 00000KT 6SM BR CLR 19/19 A3011 RMK AO2
Observed
May-24 @ 09:55 UTC
Visibility
6 SM
Flight Rules
VFR
Conditions
Mist
Cloud Levels
  • Clear skies
Temperature
19°C / 66°F
Dewpoint
19°C / 66°F
Humidity
100%
Altimeter
30.11" Hg
Pressure
1019.62 hPa